Time;durP1;ratioP1;P1;durP2;ratioP2;P2;SDS_P1;SDS_P2;PMS_P1;PMS_P2;Temp;Humidity;BMP_temperature;BMP_pressure;BME280_temperature;BME280_humidity;BME280_pressure;Samples;Min_cycle;Max_cycle;Signal;HPM_P1;HPM_P2
2023/08/29 00:01:57;;;;;;;6.30;4.68;;;;;;;13.33;100.00;101120.09;4964353;28;20504;-74
2023/08/29 00:04:24;;;;;;;8.90;4.72;;;;;;;13.30;100.00;101128.16;4963845;28;20057;-74
2023/08/29 00:06:51;;;;;;;10.02;4.80;;;;;;;13.29;100.00;101123.78;4965147;28;20047;-74
2023/08/29 00:09:18;;;;;;;8.68;4.75;;;;;;;13.29;100.00;101112.34;4963293;28;20133;-75
2023/08/29 00:11:46;;;;;;;8.60;5.00;;;;;;;13.28;100.00;101113.25;4960881;28;20054;-72
2023/08/29 00:14:13;;;;;;;9.57;4.93;;;;;;;13.27;100.00;101111.53;4966653;28;20043;-73
2023/08/29 00:16:40;;;;;;;6.10;4.95;;;;;;;13.26;100.00;101104.50;4968399;28;20039;-73
2023/08/29 00:19:07;;;;;;;9.50;5.30;;;;;;;13.23;100.00;101089.59;4969097;28;20491;-73
2023/08/29 00:21:34;;;;;;;8.50;5.15;;;;;;;13.20;100.00;101084.41;4970582;28;20447;-73
2023/08/29 00:24:03;;;;;;;8.50;4.93;;;;;;;13.18;100.00;101084.47;4959241;28;20136;-73
2023/08/29 00:26:30;;;;;;;9.00;5.55;;;;;;;13.16;100.00;101086.31;4964743;28;20180;-73
2023/08/29 00:28:57;;;;;;;8.77;5.15;;;;;;;13.17;100.00;101087.19;4967252;28;20079;-73
2023/08/29 00:31:24;;;;;;;8.38;5.53;;;;;;;13.16;100.00;101088.97;4951997;28;20109;-72
2023/08/29 00:33:52;;;;;;;7.95;5.35;;;;;;;13.15;100.00;101084.56;4950852;28;20054;-72
2023/08/29 00:36:19;;;;;;;9.00;5.57;;;;;;;13.16;100.00;101082.81;4949947;28;20137;-73
2023/08/29 00:38:46;;;;;;;8.23;5.40;;;;;;;13.14;100.00;101077.56;4966010;28;20043;-72
2023/08/29 00:41:14;;;;;;;12.43;6.53;;;;;;;13.15;100.00;101086.38;4966484;28;20039;-72
2023/08/29 00:43:41;;;;;;;8.73;5.53;;;;;;;13.15;100.00;101079.28;4948274;28;20046;-72
2023/08/29 00:46:08;;;;;;;9.98;5.60;;;;;;;13.16;100.00;101073.06;4959293;28;20053;-73
2023/08/29 00:48:37;;;;;;;12.15;5.80;;;;;;;13.16;100.00;101073.06;4966105;28;20046;-74
2023/08/29 00:51:04;;;;;;;9.43;5.80;;;;;;;13.15;100.00;101073.16;4965952;28;20499;-73
2023/08/29 00:53:35;;;;;;;11.63;6.25;;;;;;;13.14;100.00;101082.00;4950719;28;20038;-71
2023/08/29 00:56:05;;;;;;;10.60;5.75;;;;;;;13.10;100.00;101078.59;4968100;28;20123;-72
2023/08/29 00:58:34;;;;;;;9.93;6.07;;;;;;;13.07;100.00;101081.38;4970284;28;20074;-71
2023/08/29 01:01:01;;;;;;;10.80;6.68;;;;;;;13.04;100.00;101074.41;4966422;28;20559;-72
2023/08/29 01:03:30;;;;;;;10.98;7.00;;;;;;;13.02;100.00;101080.69;4969213;28;20055;-74
2023/08/29 01:05:57;;;;;;;9.75;6.70;;;;;;;13.00;100.00;101077.22;4970222;28;20049;-74
2023/08/29 01:08:24;;;;;;;13.10;7.30;;;;;;;12.98;100.00;101074.59;4951958;28;20034;-74
2023/08/29 01:11:15;;;;;;;12.88;7.70;;;;;;;12.95;100.00;101061.50;4967240;28;20046;-74
2023/08/29 01:13:57;;;;;;;11.25;6.90;;;;;;;12.93;100.00;101066.00;4967809;28;20097;-74
2023/08/29 01:16:35;;;;;;;10.75;7.40;;;;;;;12.95;100.00;101065.94;4966272;28;20384;-74
2023/08/29 01:19:15;;;;;;;12.82;6.78;;;;;;;12.92;100.00;101071.34;4962972;28;20043;-72
2023/08/29 01:22:00;;;;;;;10.90;7.50;;;;;;;12.89;100.00;101074.94;4967613;28;20039;-73
2023/08/29 01:24:44;;;;;;;12.18;7.00;;;;;;;12.87;100.00;101077.66;4968501;28;20054;-73
2023/08/29 01:27:13;;;;;;;14.63;7.05;;;;;;;12.84;100.00;101083.06;4964322;28;20042;-73
2023/08/29 01:29:42;;;;;;;12.10;6.82;;;;;;;12.85;100.00;101086.59;4950462;28;20043;-73
2023/08/29 01:32:12;;;;;;;12.68;7.20;;;;;;;12.81;100.00;101083.19;4967068;28;20117;-72
2023/08/29 01:34:43;;;;;;;14.55;6.97;;;;;;;12.79;100.00;101087.66;4949369;28;20574;-71
2023/08/29 01:37:10;;;;;;;14.30;7.70;;;;;;;12.77;100.00;101089.50;4951736;28;20318;-71
2023/08/29 01:39:38;;;;;;;13.00;7.68;;;;;;;12.75;100.00;101091.31;4967799;28;20043;-71
2023/08/29 01:42:05;;;;;;;12.52;7.07;;;;;;;12.73;100.00;101090.50;4963575;28;20039;-74
2023/08/29 01:44:32;;;;;;;13.98;7.72;;;;;;;12.72;100.00;101081.72;4964616;28;20043;-72
2023/08/29 01:47:00;;;;;;;15.10;7.88;;;;;;;12.69;100.00;101084.47;4951530;28;20495;-71
2023/08/29 01:49:29;;;;;;;12.50;7.78;;;;;;;12.67;100.00;101093.38;4969477;28;20042;-72
2023/08/29 01:51:56;;;;;;;10.73;6.78;;;;;;;12.63;100.00;101089.97;4966753;28;20043;-74
2023/08/29 01:54:24;;;;;;;12.52;7.40;;;;;;;12.62;100.00;101100.59;4966533;28;20238;-72
2023/08/29 01:56:54;;;;;;;10.77;6.97;;;;;;;12.57;100.00;101100.75;4964021;28;20070;-71
2023/08/29 01:59:22;;;;;;;10.48;6.90;;;;;;;12.55;100.00;101100.81;4963660;28;20118;-72
2023/08/29 02:01:50;;;;;;;12.30;7.68;;;;;;;12.55;100.00;101115.84;4950091;28;20039;-72
2023/08/29 02:04:18;;;;;;;11.02;6.65;;;;;;;12.50;100.00;101113.34;4949993;28;20055;-73
2023/08/29 02:06:45;;;;;;;12.70;7.15;;;;;;;12.48;100.00;101122.22;4948423;28;20066;-71
2023/08/29 02:09:12;;;;;;;11.10;7.03;;;;;;;12.46;100.00;101118.78;4946555;28;20051;-71
2023/08/29 02:11:39;;;;;;;10.43;7.07;;;;;;;12.43;100.00;101119.75;4944494;28;20039;-72
2023/08/29 02:14:07;;;;;;;13.82;7.22;;;;;;;12.41;100.00;101127.72;4947463;28;20075;-72
2023/08/29 02:16:34;;;;;;;12.60;7.32;;;;;;;12.40;100.00;101125.16;4949258;28;20432;-72
2023/08/29 02:19:02;;;;;;;18.30;7.35;;;;;;;12.39;100.00;101134.84;4947250;28;20043;-72
2023/08/29 02:21:30;;;;;;;15.88;7.57;;;;;;;12.37;100.00;101131.38;4945739;29;20115;-72
2023/08/29 02:23:58;;;;;;;13.93;8.10;;;;;;;12.37;100.00;101141.09;4938225;28;20047;-72
2023/08/29 02:26:28;;;;;;;13.35;8.00;;;;;;;12.35;100.00;101138.53;4961751;28;20035;-72
2023/08/29 02:28:55;;;;;;;13.82;8.50;;;;;;;12.36;100.00;101139.38;4945935;28;20114;-72
2023/08/29 02:31:22;;;;;;;13.05;8.40;;;;;;;12.35;100.00;101135.88;4949611;28;20511;-73
2023/08/29 02:33:51;;;;;;;18.77;8.60;;;;;;;12.35;100.00;101133.25;4945992;28;20452;-72
2023/08/29 02:36:19;;;;;;;18.25;9.80;;;;;;;12.38;100.00;101148.13;4945589;28;20483;-73
2023/08/29 02:38:46;;;;;;;16.45;8.40;;;;;;;12.38;100.00;101146.34;4943853;28;20138;-73
2023/08/29 02:41:13;;;;;;;16.17;8.93;;;;;;;12.40;100.00;101151.59;4960721;28;20130;-73
2023/08/29 02:43:40;;;;;;;17.48;9.23;;;;;;;12.39;100.00;101150.72;4942811;28;20086;-73
2023/08/29 02:46:07;;;;;;;15.23;8.95;;;;;;;12.39;100.00;101155.16;4945414;28;20078;-73
2023/08/29 02:48:35;;;;;;;19.88;9.25;;;;;;;12.39;100.00;101155.16;4947561;28;20043;-73
2023/08/29 02:51:02;;;;;;;15.63;8.75;;;;;;;12.39;100.00;101160.44;4945383;28;20550;-73
2023/08/29 02:53:30;;;;;;;15.23;8.85;;;;;;;12.39;100.00;101160.44;4949441;28;20094;-73
2023/08/29 02:55:57;;;;;;;16.80;9.65;;;;;;;12.39;100.00;101158.63;4953227;28;20062;-73
2023/08/29 02:58:24;;;;;;;17.13;9.40;;;;;;;12.38;100.00;101159.56;4946434;28;20119;-73
2023/08/29 03:00:59;;;;;;;17.17;9.38;;;;;;;12.38;100.00;101158.69;4945098;28;20066;-73
2023/08/29 03:03:26;;;;;;;18.27;9.73;;;;;;;12.38;100.00;101161.34;4946356;28;20410;-73
2023/08/29 03:05:59;;;;;;;15.82;9.93;;;;;;;12.38;100.00;101162.19;4963677;28;20534;-73
2023/08/29 03:08:26;;;;;;;20.98;9.23;;;;;;;12.38;100.00;101159.56;4951471;28;20403;-73
2023/08/29 03:10:54;;;;;;;15.50;9.23;;;;;;;12.39;100.00;101157.78;4965498;28;20093;-73
2023/08/29 03:13:22;;;;;;;13.30;8.65;;;;;;;12.39;100.00;101163.94;4963686;28;20133;-74
2023/08/29 03:15:49;;;;;;;14.10;8.85;;;;;;;12.40;100.00;101159.53;4963426;28;20531;-73
2023/08/29 03:18:17;;;;;;;15.05;8.07;;;;;;;12.41;100.00;101153.31;4964193;28;20734;-73
2023/08/29 03:20:46;;;;;;;16.23;9.15;;;;;;;12.42;100.00;101155.91;4954467;28;20039;-72
2023/08/29 03:23:14;;;;;;;16.73;9.65;;;;;;;12.43;100.00;101151.47;4965159;28;20047;-74
2023/08/29 03:25:41;;;;;;;15.20;9.73;;;;;;;12.45;100.00;101140.88;4953460;28;20043;-73
2023/08/29 03:28:09;;;;;;;18.58;10.88;;;;;;;12.47;100.00;101136.34;4964442;28;20594;-74
2023/08/29 03:30:36;;;;;;;21.70;10.35;;;;;;;12.48;100.00;101132.81;4962631;28;20515;-74
2023/08/29 03:33:03;;;;;;;16.75;10.57;;;;;;;12.49;100.00;101130.13;4957915;28;20053;-74
2023/08/29 03:35:31;;;;;;;17.08;10.18;;;;;;;12.49;100.00;101130.13;4966317;28;20049;-74
2023/08/29 03:37:59;;;;;;;16.77;10.70;;;;;;;12.52;100.00;101132.66;4949245;28;20047;-74
2023/08/29 03:40:26;;;;;;;21.40;10.43;;;;;;;12.54;100.00;101119.41;4947965;28;20055;-74
2023/08/29 03:42:53;;;;;;;22.55;11.00;;;;;;;12.57;100.00;101121.91;4948977;28;20559;-75
2023/08/29 03:45:20;;;;;;;15.77;10.48;;;;;;;12.59;100.00;101112.16;4949566;28;20262;-74
2023/08/29 03:47:48;;;;;;;20.15;10.80;;;;;;;12.62;100.00;101111.19;4950636;28;20287;-75
2023/08/29 03:50:15;;;;;;;22.48;12.38;;;;;;;12.64;100.00;101110.22;4944856;28;20038;-74
2023/08/29 03:52:46;;;;;;;18.80;10.93;;;;;;;12.66;100.00;101100.47;4951581;28;20212;-74
2023/08/29 03:55:14;;;;;;;20.63;11.02;;;;;;;12.67;100.00;101093.38;4947191;28;20034;-73
2023/08/29 03:57:41;;;;;;;20.27;11.60;;;;;;;12.66;100.00;101091.66;4963996;28;20395;-73
2023/08/29 04:00:11;;;;;;;17.73;11.82;;;;;;;12.67;100.00;101088.94;4965475;28;20468;-72
2023/08/29 04:02:42;;;;;;;22.52;12.18;;;;;;;12.66;100.00;101081.94;4947921;28;20515;-72
2023/08/29 04:05:15;;;;;;;21.77;12.20;;;;;;;12.69;100.00;101078.31;4945234;28;20055;-72
2023/08/29 04:07:44;;;;;;;27.45;14.77;;;;;;;12.66;100.00;101076.66;4947163;28;20059;-72
2023/08/29 04:10:12;;;;;;;26.15;13.52;;;;;;;12.67;100.00;101069.56;4966018;28;20104;-72
2023/08/29 04:12:39;;;;;;;28.45;15.05;;;;;;;12.65;100.00;101061.69;4962689;28;20042;-72
2023/08/29 04:15:07;;;;;;;20.25;13.07;;;;;;;12.67;100.00;101061.63;4965232;28;20066;-73
2023/08/29 04:17:34;;;;;;;24.52;13.35;;;;;;;12.68;100.00;101058.09;4963190;28;20047;-72
2023/08/29 04:20:07;;;;;;;18.20;13.38;;;;;;;12.68;100.00;101050.16;4964740;28;20047;-72
2023/08/29 04:22:35;;;;;;;25.83;14.23;;;;;;;12.68;100.00;101056.28;4946495;28;20047;-72
2023/08/29 04:25:04;;;;;;;24.30;14.00;;;;;;;12.69;100.00;101058.00;4963626;28;20047;-72
2023/08/29 04:27:32;;;;;;;22.52;14.27;;;;;;;12.70;100.00;101059.75;4962295;28;20435;-72
2023/08/29 04:29:59;;;;;;;19.90;12.55;;;;;;;12.72;100.00;101043.81;4954315;28;20097;-72
2023/08/29 04:32:27;;;;;;;21.13;13.07;;;;;;;12.70;100.00;101049.16;4967083;28;20113;-73
2023/08/29 04:34:54;;;;;;;19.08;12.55;;;;;;;12.72;100.00;101042.03;4963220;28;20074;-71
2023/08/29 04:37:22;;;;;;;26.33;13.18;;;;;;;12.72;100.00;101049.09;4937164;28;20043;-71
2023/08/29 04:39:49;;;;;;;18.92;11.88;;;;;;;12.71;100.00;101039.47;4963969;28;20050;-72
2023/08/29 04:42:16;;;;;;;21.48;13.10;;;;;;;12.70;100.00;101049.16;4947432;28;20598;-74
2023/08/29 04:44:44;;;;;;;19.25;11.75;;;;;;;12.70;100.00;101048.31;4962150;28;20058;-75
2023/08/29 04:47:14;;;;;;;20.00;12.00;;;;;;;12.70;100.00;101049.16;4950123;28;20547;-75
2023/08/29 04:49:41;;;;;;;19.48;11.43;;;;;;;12.68;100.00;101051.00;4950775;28;20046;-74
2023/08/29 04:52:08;;;;;;;14.00;10.25;;;;;;;12.70;100.00;101048.31;4956638;28;20456;-74
2023/08/29 04:54:36;;;;;;;14.48;10.25;;;;;;;12.72;100.00;101055.28;4966602;28;20144;-74
2023/08/29 04:57:05;;;;;;;13.95;9.77;;;;;;;12.73;100.00;101056.13;4945751;28;20035;-74
2023/08/29 04:59:33;;;;;;;13.00;7.97;;;;;;;12.74;100.00;101057.84;4944541;28;20657;-75
2023/08/29 05:02:00;;;;;;;16.77;10.13;;;;;;;12.80;100.00;101055.00;4950737;28;20042;-75
2023/08/29 05:04:27;;;;;;;11.63;9.30;;;;;;;12.81;100.00;101051.44;4949760;28;20070;-74
2023/08/29 05:06:55;;;;;;;21.05;10.65;;;;;;;12.82;100.00;101057.59;4966403;28;20194;-74
2023/08/29 05:09:24;;;;;;;14.30;9.52;;;;;;;12.80;100.00;101056.75;4955051;28;20038;-74
2023/08/29 05:11:51;;;;;;;18.38;11.18;;;;;;;12.79;100.00;101055.03;4955187;28;20610;-74
2023/08/29 05:14:18;;;;;;;17.30;9.85;;;;;;;12.77;100.00;101059.53;4956909;28;20468;-73
2023/08/29 05:16:46;;;;;;;15.85;10.38;;;;;;;12.77;100.00;101072.78;4964283;28;20049;-73
2023/08/29 05:19:13;;;;;;;15.80;10.40;;;;;;;12.77;100.00;101070.13;4952626;28;20041;-72
2023/08/29 05:21:40;;;;;;;17.73;10.55;;;;;;;12.76;100.00;101074.53;4954716;28;20042;-72
2023/08/29 05:24:10;;;;;;;17.77;10.15;;;;;;;12.75;100.00;101072.81;4952985;28;20488;-71
2023/08/29 05:26:37;;;;;;;15.57;10.20;;;;;;;12.74;100.00;101074.59;4965643;28;20586;-72
2023/08/29 05:29:05;;;;;;;15.40;10.07;;;;;;;12.76;100.00;101081.63;4966431;28;20042;-72
2023/08/29 05:31:32;;;;;;;16.52;10.00;;;;;;;12.76;100.00;101077.19;4964828;28;20039;-72
2023/08/29 05:33:59;;;;;;;20.48;10.93;;;;;;;12.79;100.00;101084.13;4963673;28;20039;-72
2023/08/29 05:36:26;;;;;;;16.35;10.73;;;;;;;12.82;100.00;101090.19;4963577;28;20058;-72
2023/08/29 05:38:53;;;;;;;21.23;11.13;;;;;;;12.85;100.00;101083.94;4964552;28;20046;-72
2023/08/29 05:41:21;;;;;;;16.42;10.30;;;;;;;12.87;100.00;101080.31;4959257;28;20039;-72
2023/08/29 05:43:48;;;;;;;15.95;10.27;;;;;;;12.87;100.00;101079.47;4967698;28;20050;-73
2023/08/29 05:46:15;;;;;;;17.20;10.63;;;;;;;12.89;100.00;101081.13;4964604;28;20125;-73
2023/08/29 05:48:42;;;;;;;16.65;10.27;;;;;;;12.92;100.00;101084.59;4968715;28;20367;-73
2023/08/29 05:51:09;;;;;;;16.20;10.52;;;;;;;12.93;100.00;101088.94;4963786;28;20682;-72
2023/08/29 05:53:36;;;;;;;15.10;10.10;;;;;;;12.94;100.00;101088.91;4966207;28;20507;-72
2023/08/29 05:56:04;;;;;;;17.10;10.15;;;;;;;12.95;100.00;101085.34;4965166;28;20349;-72
2023/08/29 05:58:31;;;;;;;16.95;10.63;;;;;;;12.96;100.00;101084.41;4962641;28;20686;-72
2023/08/29 06:00:59;;;;;;;19.25;10.35;;;;;;;12.97;100.00;101079.97;4965344;28;20042;-73
2023/08/29 06:03:26;;;;;;;16.63;10.18;;;;;;;12.97;100.00;101080.81;4964351;28;20046;-72
2023/08/29 06:05:54;;;;;;;17.58;10.25;;;;;;;12.97;100.00;101074.69;4965650;28;20500;-72
2023/08/29 06:08:21;;;;;;;19.30;10.95;;;;;;;12.96;100.00;101075.59;4966099;28;20051;-72
2023/08/29 06:10:48;;;;;;;17.67;10.77;;;;;;;12.98;100.00;101081.69;4961879;28;20140;-72
2023/08/29 06:13:16;;;;;;;18.95;10.63;;;;;;;12.98;100.00;101073.75;4962186;28;20066;-72
2023/08/29 06:15:43;;;;;;;16.77;10.50;;;;;;;12.99;100.00;101079.00;4959157;28;20066;-72
2023/08/29 06:18:10;;;;;;;18.83;10.65;;;;;;;13.01;100.00;101077.16;4965657;28;20680;-72
2023/08/29 06:20:38;;;;;;;18.40;11.45;;;;;;;13.03;100.00;101083.25;4965962;28;20500;-72
2023/08/29 06:23:05;;;;;;;23.15;11.10;;;;;;;13.09;100.00;101086.59;4965639;28;20500;-72
2023/08/29 06:25:32;;;;;;;24.27;10.90;;;;;;;13.15;100.00;101089.03;4970282;28;20043;-72
2023/08/29 06:27:59;;;;;;;24.48;13.07;;;;;;;13.24;100.00;101087.78;4966825;28;20047;-72
2023/08/29 06:30:27;;;;;;;19.55;14.00;;;;;;;13.33;100.00;101083.03;4965490;28;20132;-72
2023/08/29 06:32:54;;;;;;;24.20;13.90;;;;;;;13.43;100.00;101074.75;4964815;28;20051;-72
2023/08/29 06:35:21;;;;;;;25.83;14.75;;;;;;;13.55;100.00;101084.00;4963156;28;20043;-72
2023/08/29 06:37:49;;;;;;;20.30;12.25;;;;;;;13.65;100.00;101091.56;4962089;28;20362;-72
2023/08/29 06:40:17;;;;;;;24.00;13.15;;;;;;;13.74;100.00;101087.66;4959153;28;20098;-72
2023/08/29 06:42:44;;;;;;;22.38;13.77;;;;;;;13.84;100.00;101076.72;4964811;28;20053;-73
2023/08/29 06:45:13;;;;;;;20.27;12.90;;;;;;;13.96;100.00;101074.44;4964739;28;20053;-73
2023/08/29 06:47:43;;;;;;;26.75;14.00;;;;;;;14.09;100.00;101071.28;4965665;28;20043;-73
2023/08/29 06:50:11;;;;;;;25.50;13.55;;;;;;;14.21;100.00;101072.56;4964919;28;20046;-73
2023/08/29 06:52:38;;;;;;;23.48;12.98;;;;;;;14.32;100.00;101075.63;4964281;28;20376;-73
2023/08/29 06:55:09;;;;;;;21.02;12.48;;;;;;;14.43;100.00;101070.72;4961657;28;20124;-73
2023/08/29 06:57:36;;;;;;;21.95;12.32;;;;;;;14.54;100.00;101072.91;4966034;28;20047;-74
2023/08/29 07:00:04;;;;;;;17.35;11.30;;;;;;;14.68;100.00;101071.47;4964036;28;20419;-74
2023/08/29 07:02:31;;;;;;;15.40;10.63;;;;;;;14.78;100.00;101069.25;4950244;28;20050;-73
2023/08/29 07:05:00;;;;;;;13.80;9.90;;;;;;;14.89;100.00;101070.53;4962851;28;20510;-73
2023/08/29 07:07:27;;;;;;;19.67;9.82;;;;;;;15.00;100.00;101077.16;4964130;28;20035;-74
2023/08/29 07:09:54;;;;;;;15.10;9.13;;;;;;;15.10;100.00;101069.63;4965156;28;20046;-72
2023/08/29 07:12:25;;;;;;;15.90;9.55;;;;;;;15.25;100.00;101070.69;4976622;28;20298;-73
2023/08/29 07:14:52;;;;;;;12.65;8.50;;;;;;;15.40;100.00;101072.66;4956855;28;20414;-74
2023/08/29 07:17:20;;;;;;;12.95;8.80;;;;;;;15.54;100.00;101069.34;4967022;28;20046;-74
2023/08/29 07:19:49;;;;;;;10.20;7.50;;;;;;;15.69;100.00;101067.75;4968845;28;20086;-74
2023/08/29 07:22:18;;;;;;;12.70;7.50;;;;;;;15.81;100.00;101067.16;4965476;28;20050;-74
2023/08/29 07:24:53;;;;;;;14.90;8.23;;;;;;;15.94;100.00;101064.78;4964256;28;20393;-74
2023/08/29 07:27:23;;;;;;;10.13;6.50;;;;;;;16.02;100.00;101066.19;4965605;28;20050;-74
2023/08/29 07:29:50;;;;;;;12.45;7.38;;;;;;;16.11;100.00;101057.75;4963379;28;20092;-74
2023/08/29 07:32:20;;;;;;;11.65;6.28;;;;;;;16.25;100.00;101068.56;4966502;28;20072;-72
2023/08/29 07:34:47;;;;;;;11.52;6.90;;;;;;;16.38;100.00;101067.97;4963340;28;20079;-73
2023/08/29 07:37:15;;;;;;;11.65;7.22;;;;;;;16.53;100.00;101074.28;4962035;28;20070;-73
2023/08/29 07:39:43;;;;;;;9.38;6.65;;;;;;;16.66;100.00;101071.84;4963357;28;20153;-73
2023/08/29 07:42:14;;;;;;;11.00;6.47;;;;;;;16.79;100.00;101078.22;4962661;28;20213;-73
2023/08/29 07:44:41;;;;;;;7.85;6.00;;;;;;;16.91;100.00;101074.91;4965081;28;20062;-73
2023/08/29 07:47:12;;;;;;;10.32;5.47;;;;;;;17.02;100.00;101082.38;4965508;28;20043;-73
2023/08/29 07:49:42;;;;;;;26.80;7.13;;;;;;;17.16;100.00;101091.41;4958714;28;20112;-73
2023/08/29 07:52:09;;;;;;;30.95;7.75;;;;;;;17.27;100.00;101089.03;4961194;28;20056;-73
2023/08/29 07:54:37;;;;;;;14.20;5.50;;;;;;;17.42;100.00;101092.66;4965076;28;20051;-72
2023/08/29 07:57:06;;;;;;;11.52;6.30;;;;;;;17.56;100.00;101085.72;4964829;28;20499;-73
2023/08/29 07:59:33;;;;;;;11.32;5.70;;;;;;;17.62;100.00;101080.91;4964446;28;20058;-74
2023/08/29 08:02:00;;;;;;;12.43;6.15;;;;;;;17.68;100.00;101091.19;4957763;28;20534;-73
2023/08/29 08:04:28;;;;;;;12.27;5.30;;;;;;;17.74;100.00;101087.34;4964762;28;20113;-73
2023/08/29 08:07:00;;;;;;;9.68;5.80;;;;;;;17.81;100.00;101093.19;4967585;28;20035;-74
2023/08/29 08:09:28;;;;;;;9.52;4.72;;;;;;;17.88;100.00;101086.53;4965673;28;20050;-74
2023/08/29 08:11:57;;;;;;;11.57;5.47;;;;;;;17.97;100.00;101090.53;4966563;28;20058;-74
2023/08/29 08:14:25;;;;;;;10.32;4.20;;;;;;;18.05;100.00;101096.28;4966957;28;20057;-74
2023/08/29 08:16:52;;;;;;;12.68;4.43;;;;;;;18.17;100.00;101094.69;4964690;28;20479;-74
2023/08/29 08:19:19;;;;;;;11.10;4.38;;;;;;;18.23;100.00;101097.03;4964387;28;20384;-73
2023/08/29 08:21:46;;;;;;;4.65;3.10;;;;;;;18.27;100.00;101098.53;4966546;28;20047;-73
2023/08/29 08:24:17;;;;;;;8.98;3.22;;;;;;;18.27;100.00;101098.53;4966291;28;20043;-74
2023/08/29 08:26:46;;;;;;;5.90;3.10;;;;;;;18.31;98.76;101096.59;4966245;28;20049;-73
2023/08/29 08:29:19;;;;;;;8.82;3.92;;;;;;;18.36;98.39;101101.66;4966680;28;20459;-73
2023/08/29 08:31:53;;;;;;;6.57;3.70;;;;;;;18.37;98.46;101101.53;4966847;28;20091;-73
2023/08/29 08:34:23;;;;;;;7.78;3.40;;;;;;;18.47;100.00;101099.16;4967470;28;20051;-73
2023/08/29 08:36:54;;;;;;;5.28;3.50;;;;;;;18.59;100.00;101098.44;4969646;28;20051;-73
2023/08/29 08:39:21;;;;;;;5.68;3.45;;;;;;;18.71;100.00;101094.19;4960618;28;20058;-72
2023/08/29 08:41:51;;;;;;;6.53;3.08;;;;;;;18.79;99.71;101104.38;4961035;28;20447;-73
2023/08/29 08:44:21;;;;;;;3.92;2.83;;;;;;;18.78;97.03;101100.88;4962319;28;20491;-73
2023/08/29 08:46:52;;;;;;;5.60;2.97;;;;;;;18.76;96.05;101093.91;4968717;28;20047;-73
2023/08/29 08:49:20;;;;;;;8.77;2.65;;;;;;;18.75;95.70;101086.84;4969505;28;20252;-73
2023/08/29 08:51:48;;;;;;;3.20;2.05;;;;;;;18.77;95.46;101096.47;4969228;28;20063;-73
2023/08/29 08:54:16;;;;;;;5.03;2.50;;;;;;;18.78;94.94;101086.63;4964727;28;20270;-72
2023/08/29 08:56:43;;;;;;;3.83;2.58;;;;;;;18.83;94.07;101092.56;4966695;28;20644;-72
2023/08/29 08:59:10;;;;;;;14.55;3.10;;;;;;;18.87;95.84;101078.06;4965018;28;20065;-73
2023/08/29 09:01:38;;;;;;;10.18;3.15;;;;;;;18.92;94.96;101081.31;4965932;28;20043;-73
2023/08/29 09:04:05;;;;;;;9.27;3.00;;;;;;;18.97;94.93;101085.56;4968236;28;20552;-73
2023/08/29 09:06:35;;;;;;;7.45;2.63;;;;;;;18.99;93.36;101087.19;4969163;28;20049;-74
2023/08/29 09:09:23;;;;;;;9.07;2.60;;;;;;;19.03;93.28;101079.84;4968444;28;20137;-73
2023/08/29 09:11:56;;;;;;;18.55;3.45;;;;;;;19.08;93.47;101081.25;4966757;28;20039;-72
2023/08/29 09:14:25;;;;;;;7.55;2.35;;;;;;;19.18;93.07;101086.88;4967934;28;20043;-72
2023/08/29 09:16:57;;;;;;;2.05;1.70;;;;;;;19.22;90.51;101085.75;4966685;28;20070;-72
2023/08/29 09:19:29;;;;;;;11.45;2.58;;;;;;;19.24;91.01;101082.97;4963486;28;20066;-71
2023/08/29 09:21:57;;;;;;;3.80;1.90;;;;;;;19.30;91.21;101087.94;4962179;28;20133;-72
2023/08/29 09:24:27;;;;;;;5.18;2.20;;;;;;;19.39;90.73;101089.16;4966941;28;20102;-72
2023/08/29 09:26:54;;;;;;;13.25;3.13;;;;;;;19.48;90.87;101090.38;4965826;28;20447;-72
2023/08/29 09:29:23;;;;;;;7.15;2.95;;;;;;;19.55;90.46;101089.03;4966347;28;20042;-72
2023/08/29 09:31:51;;;;;;;4.20;2.70;;;;;;;19.64;90.55;101098.28;4961721;28;20038;-73
2023/08/29 09:34:29;;;;;;;6.07;2.65;;;;;;;19.70;89.27;101090.72;4966076;28;20042;-71
2023/08/29 09:37:03;;;;;;;13.02;2.70;;;;;;;19.76;89.28;101083.25;4967184;28;20061;-74
2023/08/29 09:39:30;;;;;;;6.10;1.70;;;;;;;19.76;85.88;101086.78;4962148;28;20117;-72
2023/08/29 09:42:04;;;;;;;2.05;1.00;;;;;;;19.80;84.66;101084.78;4963724;28;20143;-71
2023/08/29 09:44:40;;;;;;;4.13;1.30;;;;;;;19.82;86.11;101088.22;4966657;28;20046;-73
2023/08/29 09:47:10;;;;;;;7.70;1.55;;;;;;;19.91;86.58;101084.97;4967326;28;20078;-72
2023/08/29 09:49:48;;;;;;;13.20;2.30;;;;;;;20.10;86.94;101081.91;4962211;28;20046;-72
2023/08/29 09:52:17;;;;;;;3.10;1.35;;;;;;;20.29;87.07;101086.03;4958741;28;20046;-73
2023/08/29 09:54:49;;;;;;;2.72;1.20;;;;;;;20.46;87.51;101087.53;4966908;28;20039;-73
2023/08/29 09:57:21;;;;;;;3.97;1.52;;;;;;;20.58;86.22;101083.19;4964870;28;20093;-72
2023/08/29 09:59:52;;;;;;;11.85;1.90;;;;;;;20.71;85.79;101080.50;4965853;28;20492;-73
2023/08/29 10:02:21;;;;;;;12.68;2.58;;;;;;;20.77;83.52;101082.78;4965338;28;20053;-72
2023/08/29 10:04:55;;;;;;;7.03;1.90;;;;;;;20.76;81.60;101083.75;4969837;28;20055;-72
2023/08/29 10:07:37;;;;;;;14.38;2.58;;;;;;;20.66;81.60;101080.81;4968344;28;20042;-73
2023/08/29 10:10:07;;;;;;;8.70;1.70;;;;;;;20.60;80.85;101082.13;4969839;28;20121;-73
2023/08/29 10:12:35;;;;;;;16.13;1.98;;;;;;;20.63;81.51;101078.34;4985284;28;20600;-74
2023/08/29 10:15:04;;;;;;;16.42;2.35;;;;;;;20.69;79.71;101077.06;4977677;28;20047;-74
2023/08/29 10:17:36;;;;;;;2.90;1.33;;;;;;;20.68;79.20;101078.03;4965867;28;20105;-73
2023/08/29 10:20:08;;;;;;;8.65;1.85;;;;;;;20.74;80.78;101081.19;4969820;28;20043;-73
2023/08/29 10:22:38;;;;;;;7.03;1.88;;;;;;;20.71;80.62;101077.84;4964360;28;20339;-73
2023/08/29 10:25:06;;;;;;;5.05;1.63;;;;;;;20.64;77.89;101085.44;4964423;28;20656;-73
2023/08/29 10:27:34;;;;;;;34.70;4.90;;;;;;;20.52;75.96;101081.78;4965606;28;20047;-73
2023/08/29 10:30:05;;;;;;;5.60;1.52;;;;;;;20.40;74.44;101085.28;4966763;28;20038;-73
2023/08/29 10:32:34;;;;;;;12.13;2.45;;;;;;;20.23;76.54;101087.31;4965124;28;20141;-73
2023/08/29 10:35:03;;;;;;;22.67;3.25;;;;;;;20.11;77.61;101078.25;4959462;28;20046;-73
2023/08/29 10:37:31;;;;;;;7.45;1.85;;;;;;;20.04;76.24;101071.63;4967514;28;20082;-73
2023/08/29 10:40:13;;;;;;;4.38;1.30;;;;;;;19.99;76.70;101071.94;4965817;28;20098;-74
2023/08/29 10:42:53;;;;;;;9.82;1.75;;;;;;;20.00;77.26;101068.28;4964520;28;20149;-73
2023/08/29 10:45:42;;;;;;;18.23;2.70;;;;;;;20.19;77.61;101069.72;4966164;28;20043;-71
2023/08/29 10:48:09;;;;;;;3.70;1.30;;;;;;;20.40;77.30;101067.41;4959825;28;20057;-73
2023/08/29 10:50:37;;;;;;;4.80;1.30;;;;;;;20.60;75.75;101070.56;4965328;28;20418;-73
2023/08/29 10:53:04;;;;;;;2.65;1.00;;;;;;;20.77;76.20;101067.59;4965568;28;20039;-73
2023/08/29 10:55:34;;;;;;;15.57;2.47;;;;;;;20.96;75.72;101068.13;4965728;28;20076;-73
2023/08/29 10:58:34;;;;;;;2.63;1.00;;;;;;;21.18;71.20;101051.34;4959716;28;20055;-73
2023/08/29 11:01:02;;;;;;;2.95;0.80;;;;;;;21.07;68.54;101054.78;4960874;28;20046;-73
2023/08/29 11:03:50;;;;;;;1.77;0.90;;;;;;;21.26;65.61;101062.38;4964818;28;20046;-73
2023/08/29 11:06:19;;;;;;;1.83;0.77;;;;;;;21.37;64.98;101053.53;4965844;28;20050;-74
2023/08/29 11:08:46;;;;;;;11.13;1.55;;;;;;;21.50;66.95;101053.53;4965147;28;20047;-74
2023/08/29 11:11:19;;;;;;;2.70;0.88;;;;;;;21.64;66.07;101053.38;4965471;28;20698;-74
2023/08/29 11:14:06;;;;;;;1.95;1.10;;;;;;;21.82;64.34;101044.94;4964176;28;20050;-73
2023/08/29 11:16:36;;;;;;;1.75;0.77;;;;;;;21.77;64.97;101045.31;4966910;28;20043;-74
2023/08/29 11:19:12;;;;;;;1.95;1.00;;;;;;;21.78;63.56;101041.63;4964419;28;20082;-73
2023/08/29 11:21:47;;;;;;;4.05;1.20;;;;;;;21.67;64.85;101036.22;4966451;28;20050;-73